sensor_id;sensor_type;location;lat;lon;timestamp;P1;durP1;ratioP1;P2;durP2;ratioP2
60308;SDS011;50313;52.894;6.492;2022-08-30T00:01:22;2.20;;;1.27;;
60308;SDS011;50313;52.894;6.492;2022-08-30T00:03:50;3.35;;;1.38;;
60308;SDS011;50313;52.894;6.492;2022-08-30T00:06:19;1.08;;;1.00;;
60308;SDS011;50313;52.894;6.492;2022-08-30T00:08:46;1.60;;;1.23;;
60308;SDS011;50313;52.894;6.492;2022-08-30T00:11:14;1.67;;;1.15;;
60308;SDS011;50313;52.894;6.492;2022-08-30T00:13:46;6.00;;;1.73;;
60308;SDS011;50313;52.894;6.492;2022-08-30T00:16:15;1.85;;;1.20;;
60308;SDS011;50313;52.894;6.492;2022-08-30T00:18:42;0.75;;;0.75;;
60308;SDS011;50313;52.894;6.492;2022-08-30T00:21:08;2.38;;;1.10;;
60308;SDS011;50313;52.894;6.492;2022-08-30T00:23:34;1.25;;;0.70;;
60308;SDS011;50313;52.894;6.492;2022-08-30T00:26:00;1.30;;;1.17;;
60308;SDS011;50313;52.894;6.492;2022-08-30T00:28:26;1.35;;;1.20;;
60308;SDS011;50313;52.894;6.492;2022-08-30T00:30:53;2.90;;;1.45;;
60308;SDS011;50313;52.894;6.492;2022-08-30T00:33:19;1.45;;;1.33;;
60308;SDS011;50313;52.894;6.492;2022-08-30T00:35:45;2.10;;;1.45;;
60308;SDS011;50313;52.894;6.492;2022-08-30T00:38:11;3.45;;;1.98;;
60308;SDS011;50313;52.894;6.492;2022-08-30T00:40:38;3.38;;;1.30;;
60308;SDS011;50313;52.894;6.492;2022-08-30T00:43:06;3.15;;;1.75;;
60308;SDS011;50313;52.894;6.492;2022-08-30T00:45:37;0.75;;;0.75;;
60308;SDS011;50313;52.894;6.492;2022-08-30T00:48:04;0.90;;;0.90;;
60308;SDS011;50313;52.894;6.492;2022-08-30T00:50:48;1.33;;;1.23;;
60308;SDS011;50313;52.894;6.492;2022-08-30T00:53:25;3.22;;;1.88;;
60308;SDS011;50313;52.894;6.492;2022-08-30T00:55:54;4.63;;;1.10;;
60308;SDS011;50313;52.894;6.492;2022-08-30T00:58:24;2.15;;;1.42;;
60308;SDS011;50313;52.894;6.492;2022-08-30T01:00:54;5.18;;;2.45;;
60308;SDS011;50313;52.894;6.492;2022-08-30T01:03:22;2.15;;;1.65;;
60308;SDS011;50313;52.894;6.492;2022-08-30T01:05:48;2.05;;;1.95;;
60308;SDS011;50313;52.894;6.492;2022-08-30T01:08:15;3.17;;;1.30;;
60308;SDS011;50313;52.894;6.492;2022-08-30T01:10:42;0.85;;;0.85;;
60308;SDS011;50313;52.894;6.492;2022-08-30T01:13:08;1.42;;;1.33;;
60308;SDS011;50313;52.894;6.492;2022-08-30T01:15:36;0.82;;;0.75;;
60308;SDS011;50313;52.894;6.492;2022-08-30T01:18:02;3.80;;;2.03;;
60308;SDS011;50313;52.894;6.492;2022-08-30T01:20:34;1.95;;;1.75;;
60308;SDS011;50313;52.894;6.492;2022-08-30T01:23:08;1.90;;;1.38;;
60308;SDS011;50313;52.894;6.492;2022-08-30T01:25:37;1.88;;;1.40;;
60308;SDS011;50313;52.894;6.492;2022-08-30T01:28:07;2.10;;;1.05;;
60308;SDS011;50313;52.894;6.492;2022-08-30T01:30:35;3.75;;;1.00;;
60308;SDS011;50313;52.894;6.492;2022-08-30T01:33:06;1.30;;;1.10;;
60308;SDS011;50313;52.894;6.492;2022-08-30T01:35:37;1.85;;;1.67;;
60308;SDS011;50313;52.894;6.492;2022-08-30T01:38:13;0.80;;;0.80;;
60308;SDS011;50313;52.894;6.492;2022-08-30T01:40:41;5.82;;;1.85;;
60308;SDS011;50313;52.894;6.492;2022-08-30T01:43:08;0.90;;;0.90;;
60308;SDS011;50313;52.894;6.492;2022-08-30T01:45:36;10.68;;;1.75;;
60308;SDS011;50313;52.894;6.492;2022-08-30T01:48:01;1.75;;;1.52;;
60308;SDS011;50313;52.894;6.492;2022-08-30T01:50:27;1.15;;;1.13;;
60308;SDS011;50313;52.894;6.492;2022-08-30T01:52:53;1.83;;;1.70;;
60308;SDS011;50313;52.894;6.492;2022-08-30T01:55:19;3.63;;;1.75;;
60308;SDS011;50313;52.894;6.492;2022-08-30T01:57:45;3.28;;;1.17;;
60308;SDS011;50313;52.894;6.492;2022-08-30T02:00:11;7.40;;;1.77;;
60308;SDS011;50313;52.894;6.492;2022-08-30T02:02:38;1.15;;;1.05;;
60308;SDS011;50313;52.894;6.492;2022-08-30T02:05:04;2.47;;;1.10;;
60308;SDS011;50313;52.894;6.492;2022-08-30T02:07:30;1.50;;;1.20;;
60308;SDS011;50313;52.894;6.492;2022-08-30T02:09:56;0.57;;;0.57;;
60308;SDS011;50313;52.894;6.492;2022-08-30T02:12:22;2.03;;;1.38;;
60308;SDS011;50313;52.894;6.492;2022-08-30T02:14:48;0.47;;;0.47;;
60308;SDS011;50313;52.894;6.492;2022-08-30T02:17:14;0.90;;;0.82;;
60308;SDS011;50313;52.894;6.492;2022-08-30T02:19:40;0.43;;;0.43;;
60308;SDS011;50313;52.894;6.492;2022-08-30T02:22:07;1.63;;;1.50;;
60308;SDS011;50313;52.894;6.492;2022-08-30T02:24:33;1.92;;;1.67;;
60308;SDS011;50313;52.894;6.492;2022-08-30T02:26:59;0.63;;;0.63;;
60308;SDS011;50313;52.894;6.492;2022-08-30T02:29:25;2.50;;;1.08;;
60308;SDS011;50313;52.894;6.492;2022-08-30T02:31:51;4.20;;;1.13;;
60308;SDS011;50313;52.894;6.492;2022-08-30T02:34:17;0.82;;;0.82;;
60308;SDS011;50313;52.894;6.492;2022-08-30T02:36:43;1.08;;;1.02;;
60308;SDS011;50313;52.894;6.492;2022-08-30T02:39:10;1.02;;;0.77;;
60308;SDS011;50313;52.894;6.492;2022-08-30T02:41:37;0.88;;;0.88;;
60308;SDS011;50313;52.894;6.492;2022-08-30T02:44:04;1.77;;;1.40;;
60308;SDS011;50313;52.894;6.492;2022-08-30T02:46:30;5.15;;;0.77;;
60308;SDS011;50313;52.894;6.492;2022-08-30T02:48:56;1.90;;;1.55;;
60308;SDS011;50313;52.894;6.492;2022-08-30T02:51:22;1.42;;;0.52;;
60308;SDS011;50313;52.894;6.492;2022-08-30T02:53:47;14.13;;;2.70;;
60308;SDS011;50313;52.894;6.492;2022-08-30T02:56:14;2.10;;;1.13;;
60308;SDS011;50313;52.894;6.492;2022-08-30T02:58:40;1.50;;;1.40;;
60308;SDS011;50313;52.894;6.492;2022-08-30T03:01:07;1.35;;;1.20;;
60308;SDS011;50313;52.894;6.492;2022-08-30T03:03:36;1.25;;;1.15;;
60308;SDS011;50313;52.894;6.492;2022-08-30T03:06:02;2.00;;;1.80;;
60308;SDS011;50313;52.894;6.492;2022-08-30T03:08:28;1.92;;;1.38;;
60308;SDS011;50313;52.894;6.492;2022-08-30T03:10:54;0.68;;;0.68;;
60308;SDS011;50313;52.894;6.492;2022-08-30T03:13:21;1.42;;;1.23;;
60308;SDS011;50313;52.894;6.492;2022-08-30T03:15:48;1.92;;;0.73;;
60308;SDS011;50313;52.894;6.492;2022-08-30T03:18:15;3.88;;;2.05;;
60308;SDS011;50313;52.894;6.492;2022-08-30T03:20:41;2.47;;;1.42;;
60308;SDS011;50313;52.894;6.492;2022-08-30T03:23:07;1.20;;;0.90;;
60308;SDS011;50313;52.894;6.492;2022-08-30T03:25:33;1.80;;;1.02;;
60308;SDS011;50313;52.894;6.492;2022-08-30T03:27:59;13.50;;;0.88;;
60308;SDS011;50313;52.894;6.492;2022-08-30T03:30:25;3.15;;;2.10;;
60308;SDS011;50313;52.894;6.492;2022-08-30T03:32:50;0.82;;;0.82;;
60308;SDS011;50313;52.894;6.492;2022-08-30T03:35:16;1.33;;;1.23;;
60308;SDS011;50313;52.894;6.492;2022-08-30T03:37:42;0.80;;;0.80;;
60308;SDS011;50313;52.894;6.492;2022-08-30T03:40:09;1.20;;;1.13;;
60308;SDS011;50313;52.894;6.492;2022-08-30T03:42:35;0.77;;;0.50;;
60308;SDS011;50313;52.894;6.492;2022-08-30T03:45:02;1.27;;;1.25;;
60308;SDS011;50313;52.894;6.492;2022-08-30T03:47:29;1.98;;;1.88;;
60308;SDS011;50313;52.894;6.492;2022-08-30T03:49:54;2.28;;;1.23;;
60308;SDS011;50313;52.894;6.492;2022-08-30T03:52:20;2.67;;;1.65;;
60308;SDS011;50313;52.894;6.492;2022-08-30T03:54:46;5.18;;;2.15;;
60308;SDS011;50313;52.894;6.492;2022-08-30T03:57:12;1.42;;;0.50;;
60308;SDS011;50313;52.894;6.492;2022-08-30T03:59:38;1.52;;;1.00;;
60308;SDS011;50313;52.894;6.492;2022-08-30T04:02:04;0.47;;;0.47;;
60308;SDS011;50313;52.894;6.492;2022-08-30T04:04:30;1.77;;;1.67;;
60308;SDS011;50313;52.894;6.492;2022-08-30T04:06:56;1.83;;;0.77;;
60308;SDS011;50313;52.894;6.492;2022-08-30T04:09:22;1.52;;;1.35;;
60308;SDS011;50313;52.894;6.492;2022-08-30T04:11:48;0.70;;;0.70;;
60308;SDS011;50313;52.894;6.492;2022-08-30T04:14:15;1.98;;;0.80;;
60308;SDS011;50313;52.894;6.492;2022-08-30T04:16:41;3.70;;;1.95;;
60308;SDS011;50313;52.894;6.492;2022-08-30T04:19:07;1.50;;;1.40;;
60308;SDS011;50313;52.894;6.492;2022-08-30T04:21:33;0.93;;;0.93;;
60308;SDS011;50313;52.894;6.492;2022-08-30T04:23:59;1.05;;;1.00;;
60308;SDS011;50313;52.894;6.492;2022-08-30T04:26:25;1.98;;;1.15;;
60308;SDS011;50313;52.894;6.492;2022-08-30T04:28:52;2.60;;;0.85;;
60308;SDS011;50313;52.894;6.492;2022-08-30T04:31:18;0.68;;;0.65;;
60308;SDS011;50313;52.894;6.492;2022-08-30T04:33:44;0.93;;;0.82;;
60308;SDS011;50313;52.894;6.492;2022-08-30T04:36:10;1.52;;;1.00;;
60308;SDS011;50313;52.894;6.492;2022-08-30T04:38:37;0.95;;;0.95;;
60308;SDS011;50313;52.894;6.492;2022-08-30T04:41:08;1.23;;;1.13;;
60308;SDS011;50313;52.894;6.492;2022-08-30T04:43:40;1.10;;;1.00;;
60308;SDS011;50313;52.894;6.492;2022-08-30T04:46:08;1.52;;;1.42;;
60308;SDS011;50313;52.894;6.492;2022-08-30T04:48:35;2.25;;;1.73;;
60308;SDS011;50313;52.894;6.492;2022-08-30T04:51:03;2.15;;;1.35;;
60308;SDS011;50313;52.894;6.492;2022-08-30T04:53:35;4.85;;;1.33;;
60308;SDS011;50313;52.894;6.492;2022-08-30T04:56:05;1.25;;;1.15;;
60308;SDS011;50313;52.894;6.492;2022-08-30T04:58:32;14.35;;;1.00;;
60308;SDS011;50313;52.894;6.492;2022-08-30T05:00:58;2.55;;;1.30;;
60308;SDS011;50313;52.894;6.492;2022-08-30T05:03:23;4.30;;;0.60;;
60308;SDS011;50313;52.894;6.492;2022-08-30T05:05:49;1.88;;;1.77;;
60308;SDS011;50313;52.894;6.492;2022-08-30T05:08:17;4.30;;;2.70;;
60308;SDS011;50313;52.894;6.492;2022-08-30T05:10:45;3.92;;;1.90;;
60308;SDS011;50313;52.894;6.492;2022-08-30T05:13:14;1.33;;;1.05;;
60308;SDS011;50313;52.894;6.492;2022-08-30T05:15:41;3.33;;;1.45;;
60308;SDS011;50313;52.894;6.492;2022-08-30T05:18:07;0.75;;;0.75;;
60308;SDS011;50313;52.894;6.492;2022-08-30T05:20:34;1.42;;;1.30;;
60308;SDS011;50313;52.894;6.492;2022-08-30T05:23:02;3.08;;;0.95;;
60308;SDS011;50313;52.894;6.492;2022-08-30T05:25:30;2.97;;;1.40;;
60308;SDS011;50313;52.894;6.492;2022-08-30T05:27:58;2.33;;;2.05;;
60308;SDS011;50313;52.894;6.492;2022-08-30T05:30:24;1.45;;;1.10;;
60308;SDS011;50313;52.894;6.492;2022-08-30T05:32:51;1.65;;;1.55;;
60308;SDS011;50313;52.894;6.492;2022-08-30T05:35:18;1.83;;;1.73;;
60308;SDS011;50313;52.894;6.492;2022-08-30T05:37:44;1.13;;;0.60;;
60308;SDS011;50313;52.894;6.492;2022-08-30T05:40:11;1.98;;;1.55;;
60308;SDS011;50313;52.894;6.492;2022-08-30T05:42:38;4.82;;;1.65;;
60308;SDS011;50313;52.894;6.492;2022-08-30T05:45:07;3.78;;;1.17;;
60308;SDS011;50313;52.894;6.492;2022-08-30T05:47:33;3.05;;;1.90;;
60308;SDS011;50313;52.894;6.492;2022-08-30T05:50:00;1.48;;;1.23;;
60308;SDS011;50313;52.894;6.492;2022-08-30T05:52:26;1.92;;;1.35;;
60308;SDS011;50313;52.894;6.492;2022-08-30T05:54:53;1.98;;;1.80;;
60308;SDS011;50313;52.894;6.492;2022-08-30T05:57:23;1.60;;;1.23;;
60308;SDS011;50313;52.894;6.492;2022-08-30T05:59:49;1.30;;;1.20;;
60308;SDS011;50313;52.894;6.492;2022-08-30T06:02:15;3.10;;;2.22;;
60308;SDS011;50313;52.894;6.492;2022-08-30T06:04:41;5.30;;;1.67;;
60308;SDS011;50313;52.894;6.492;2022-08-30T06:07:07;2.03;;;1.50;;
60308;SDS011;50313;52.894;6.492;2022-08-30T06:09:34;1.05;;;1.05;;
60308;SDS011;50313;52.894;6.492;2022-08-30T06:12:00;1.88;;;1.33;;
60308;SDS011;50313;52.894;6.492;2022-08-30T06:14:25;1.42;;;1.13;;
60308;SDS011;50313;52.894;6.492;2022-08-30T06:16:51;1.90;;;1.27;;
60308;SDS011;50313;52.894;6.492;2022-08-30T06:19:17;0.88;;;0.88;;
60308;SDS011;50313;52.894;6.492;2022-08-30T06:21:46;0.60;;;0.50;;
60308;SDS011;50313;52.894;6.492;2022-08-30T06:24:13;1.33;;;1.23;;
60308;SDS011;50313;52.894;6.492;2022-08-30T06:26:39;1.65;;;1.00;;
60308;SDS011;50313;52.894;6.492;2022-08-30T06:29:08;4.90;;;0.77;;
60308;SDS011;50313;52.894;6.492;2022-08-30T06:31:35;0.70;;;0.70;;
60308;SDS011;50313;52.894;6.492;2022-08-30T06:34:01;1.25;;;1.17;;
60308;SDS011;50313;52.894;6.492;2022-08-30T06:36:27;1.25;;;1.15;;
60308;SDS011;50313;52.894;6.492;2022-08-30T06:38:54;1.23;;;0.80;;
60308;SDS011;50313;52.894;6.492;2022-08-30T06:41:22;1.67;;;1.58;;
60308;SDS011;50313;52.894;6.492;2022-08-30T06:43:50;2.15;;;1.30;;
60308;SDS011;50313;52.894;6.492;2022-08-30T06:46:18;6.32;;;1.95;;
60308;SDS011;50313;52.894;6.492;2022-08-30T06:48:45;3.70;;;1.35;;
60308;SDS011;50313;52.894;6.492;2022-08-30T06:51:11;0.50;;;0.50;;
60308;SDS011;50313;52.894;6.492;2022-08-30T06:53:37;2.20;;;1.45;;
60308;SDS011;50313;52.894;6.492;2022-08-30T06:56:07;2.05;;;0.73;;
60308;SDS011;50313;52.894;6.492;2022-08-30T06:58:35;0.85;;;0.85;;
60308;SDS011;50313;52.894;6.492;2022-08-30T07:01:02;0.73;;;0.73;;
60308;SDS011;50313;52.894;6.492;2022-08-30T07:03:29;6.53;;;0.70;;
60308;SDS011;50313;52.894;6.492;2022-08-30T07:05:55;0.95;;;0.93;;
60308;SDS011;50313;52.894;6.492;2022-08-30T07:08:22;0.93;;;0.90;;
60308;SDS011;50313;52.894;6.492;2022-08-30T07:10:49;0.98;;;0.98;;
60308;SDS011;50313;52.894;6.492;2022-08-30T07:13:16;0.60;;;0.60;;
60308;SDS011;50313;52.894;6.492;2022-08-30T07:15:43;5.30;;;1.45;;
60308;SDS011;50313;52.894;6.492;2022-08-30T07:18:10;1.67;;;1.02;;
60308;SDS011;50313;52.894;6.492;2022-08-30T07:20:54;5.43;;;1.85;;
60308;SDS011;50313;52.894;6.492;2022-08-30T07:23:21;1.15;;;0.65;;
60308;SDS011;50313;52.894;6.492;2022-08-30T07:25:47;0.32;;;0.32;;
60308;SDS011;50313;52.894;6.492;2022-08-30T07:28:12;0.82;;;0.70;;
60308;SDS011;50313;52.894;6.492;2022-08-30T07:30:39;0.20;;;0.20;;
60308;SDS011;50313;52.894;6.492;2022-08-30T07:33:05;1.55;;;0.85;;
60308;SDS011;50313;52.894;6.492;2022-08-30T07:35:31;0.50;;;0.50;;
60308;SDS011;50313;52.894;6.492;2022-08-30T07:37:57;3.05;;;0.65;;
60308;SDS011;50313;52.894;6.492;2022-08-30T07:40:23;0.55;;;0.43;;
60308;SDS011;50313;52.894;6.492;2022-08-30T07:42:49;0.75;;;0.68;;
60308;SDS011;50313;52.894;6.492;2022-08-30T07:45:15;0.40;;;0.40;;
60308;SDS011;50313;52.894;6.492;2022-08-30T07:47:41;0.30;;;0.30;;
60308;SDS011;50313;52.894;6.492;2022-08-30T07:50:07;0.52;;;0.50;;
60308;SDS011;50313;52.894;6.492;2022-08-30T07:52:33;0.80;;;0.50;;
60308;SDS011;50313;52.894;6.492;2022-08-30T07:54:59;0.30;;;0.30;;
60308;SDS011;50313;52.894;6.492;2022-08-30T07:57:25;6.53;;;0.70;;
60308;SDS011;50313;52.894;6.492;2022-08-30T07:59:51;2.55;;;0.95;;
60308;SDS011;50313;52.894;6.492;2022-08-30T08:02:18;7.25;;;1.40;;
60308;SDS011;50313;52.894;6.492;2022-08-30T08:04:44;0.35;;;0.35;;
60308;SDS011;50313;52.894;6.492;2022-08-30T08:07:10;1.30;;;0.47;;
60308;SDS011;50313;52.894;6.492;2022-08-30T08:09:36;0.98;;;0.40;;
60308;SDS011;50313;52.894;6.492;2022-08-30T08:12:03;0.75;;;0.52;;
60308;SDS011;50313;52.894;6.492;2022-08-30T08:14:30;1.25;;;0.35;;
60308;SDS011;50313;52.894;6.492;2022-08-30T08:16:56;4.45;;;0.60;;
60308;SDS011;50313;52.894;6.492;2022-08-30T08:19:22;0.47;;;0.30;;
60308;SDS011;50313;52.894;6.492;2022-08-30T08:21:48;1.17;;;0.82;;
60308;SDS011;50313;52.894;6.492;2022-08-30T08:24:14;0.68;;;0.40;;
60308;SDS011;50313;52.894;6.492;2022-08-30T08:26:40;0.20;;;0.20;;
60308;SDS011;50313;52.894;6.492;2022-08-30T08:29:07;3.13;;;0.55;;
60308;SDS011;50313;52.894;6.492;2022-08-30T08:31:34;6.22;;;0.40;;
60308;SDS011;50313;52.894;6.492;2022-08-30T08:34:01;0.40;;;0.40;;
60308;SDS011;50313;52.894;6.492;2022-08-30T08:36:30;0.75;;;0.32;;
60308;SDS011;50313;52.894;6.492;2022-08-30T08:38:56;0.20;;;0.20;;
60308;SDS011;50313;52.894;6.492;2022-08-30T08:50:25;0.80;;;0.43;;
60308;SDS011;50313;52.894;6.492;2022-08-30T08:55:42;0.63;;;0.47;;
60308;SDS011;50313;52.894;6.492;2022-08-30T08:58:17;0.30;;;0.30;;
60308;SDS011;50313;52.894;6.492;2022-08-30T09:00:49;1.73;;;0.80;;
60308;SDS011;50313;52.894;6.492;2022-08-30T09:03:15;1.13;;;0.50;;
60308;SDS011;50313;52.894;6.492;2022-08-30T09:05:45;0.40;;;0.35;;
60308;SDS011;50313;52.894;6.492;2022-08-30T09:08:13;0.38;;;0.32;;
60308;SDS011;50313;52.894;6.492;2022-08-30T09:10:40;0.40;;;0.22;;
60308;SDS011;50313;52.894;6.492;2022-08-30T09:13:12;0.70;;;0.57;;
60308;SDS011;50313;52.894;6.492;2022-08-30T09:15:38;1.55;;;0.47;;
60308;SDS011;50313;52.894;6.492;2022-08-30T09:18:05;0.60;;;0.50;;
60308;SDS011;50313;52.894;6.492;2022-08-30T09:20:38;0.93;;;0.43;;
60308;SDS011;50313;52.894;6.492;2022-08-30T09:28:32;0.45;;;0.28;;
60308;SDS011;50313;52.894;6.492;2022-08-30T09:33:58;0.60;;;0.30;;
60308;SDS011;50313;52.894;6.492;2022-08-30T09:36:49;2.20;;;0.50;;
60308;SDS011;50313;52.894;6.492;2022-08-30T09:39:27;3.63;;;0.43;;
60308;SDS011;50313;52.894;6.492;2022-08-30T09:42:09;0.70;;;0.25;;
60308;SDS011;50313;52.894;6.492;2022-08-30T09:44:37;0.40;;;0.40;;
60308;SDS011;50313;52.894;6.492;2022-08-30T09:47:03;0.50;;;0.50;;
60308;SDS011;50313;52.894;6.492;2022-08-30T09:52:44;0.73;;;0.35;;
60308;SDS011;50313;52.894;6.492;2022-08-30T10:00:14;1.00;;;0.25;;
60308;SDS011;50313;52.894;6.492;2022-08-30T10:10:42;0.30;;;0.30;;
60308;SDS011;50313;52.894;6.492;2022-08-30T10:16:08;0.43;;;0.13;;
60308;SDS011;50313;52.894;6.492;2022-08-30T10:19:05;0.22;;;0.22;;
60308;SDS011;50313;52.894;6.492;2022-08-30T10:24:17;0.28;;;0.25;;
60308;SDS011;50313;52.894;6.492;2022-08-30T10:26:49;0.30;;;0.30;;
60308;SDS011;50313;52.894;6.492;2022-08-30T10:29:22;1.30;;;0.25;;
60308;SDS011;50313;52.894;6.492;2022-08-30T10:31:55;2.15;;;0.25;;
60308;SDS011;50313;52.894;6.492;2022-08-30T10:37:44;0.63;;;0.32;;
60308;SDS011;50313;52.894;6.492;2022-08-30T10:40:24;0.22;;;0.20;;
60308;SDS011;50313;52.894;6.492;2022-08-30T10:43:15;5.32;;;0.65;;
60308;SDS011;50313;52.894;6.492;2022-08-30T10:45:52;0.40;;;0.40;;
60308;SDS011;50313;52.894;6.492;2022-08-30T10:48:23;2.13;;;0.55;;
60308;SDS011;50313;52.894;6.492;2022-08-30T10:50:57;0.57;;;0.30;;
60308;SDS011;50313;52.894;6.492;2022-08-30T10:53:32;7.13;;;0.75;;
60308;SDS011;50313;52.894;6.492;2022-08-30T10:56:09;0.20;;;0.20;;
60308;SDS011;50313;52.894;6.492;2022-08-30T11:06:46;0.77;;;0.32;;
60308;SDS011;50313;52.894;6.492;2022-08-30T11:15:24;1.35;;;0.30;;
60308;SDS011;50313;52.894;6.492;2022-08-30T11:18:15;5.18;;;0.30;;
60308;SDS011;50313;52.894;6.492;2022-08-30T11:20:44;0.30;;;0.30;;
60308;SDS011;50313;52.894;6.492;2022-08-30T11:23:19;1.55;;;0.30;;
60308;SDS011;50313;52.894;6.492;2022-08-30T11:25:55;0.22;;;0.15;;
60308;SDS011;50313;52.894;6.492;2022-08-30T11:33:54;0.63;;;0.50;;
60308;SDS011;50313;52.894;6.492;2022-08-30T11:41:35;1.20;;;0.38;;
60308;SDS011;50313;52.894;6.492;2022-08-30T11:44:13;0.50;;;0.40;;
60308;SDS011;50313;52.894;6.492;2022-08-30T11:46:39;0.20;;;0.20;;
60308;SDS011;50313;52.894;6.492;2022-08-30T12:02:38;0.68;;;0.40;;
60308;SDS011;50313;52.894;6.492;2022-08-30T12:08:05;0.25;;;0.25;;
60308;SDS011;50313;52.894;6.492;2022-08-30T12:10:53;0.30;;;0.20;;
60308;SDS011;50313;52.894;6.492;2022-08-30T12:16:06;0.73;;;0.60;;
60308;SDS011;50313;52.894;6.492;2022-08-30T12:18:59;2.58;;;0.47;;
60308;SDS011;50313;52.894;6.492;2022-08-30T12:21:39;1.35;;;0.50;;
60308;SDS011;50313;52.894;6.492;2022-08-30T12:24:06;0.73;;;0.52;;
60308;SDS011;50313;52.894;6.492;2022-08-30T12:29:15;1.35;;;0.80;;
60308;SDS011;50313;52.894;6.492;2022-08-30T12:31:57;2.28;;;0.60;;
60308;SDS011;50313;52.894;6.492;2022-08-30T12:34:29;5.38;;;0.63;;
60308;SDS011;50313;52.894;6.492;2022-08-30T12:37:19;1.13;;;0.57;;
60308;SDS011;50313;52.894;6.492;2022-08-30T12:42:32;0.52;;;0.20;;
60308;SDS011;50313;52.894;6.492;2022-08-30T12:45:08;1.50;;;0.45;;
60308;SDS011;50313;52.894;6.492;2022-08-30T12:47:40;0.38;;;0.17;;
60308;SDS011;50313;52.894;6.492;2022-08-30T12:50:13;1.20;;;0.50;;
60308;SDS011;50313;52.894;6.492;2022-08-30T12:52:43;0.85;;;0.22;;
60308;SDS011;50313;52.894;6.492;2022-08-30T12:55:16;0.40;;;0.30;;
60308;SDS011;50313;52.894;6.492;2022-08-30T13:00:24;1.45;;;0.45;;
60308;SDS011;50313;52.894;6.492;2022-08-30T13:02:53;0.63;;;0.28;;
60308;SDS011;50313;52.894;6.492;2022-08-30T13:11:02;0.10;;;0.10;;
60308;SDS011;50313;52.894;6.492;2022-08-30T13:13:48;1.85;;;0.30;;
60308;SDS011;50313;52.894;6.492;2022-08-30T13:18:44;1.02;;;0.43;;
60308;SDS011;50313;52.894;6.492;2022-08-30T13:21:19;0.90;;;0.20;;
60308;SDS011;50313;52.894;6.492;2022-08-30T13:23:54;2.58;;;0.55;;
60308;SDS011;50313;52.894;6.492;2022-08-30T13:26:26;1.23;;;0.38;;
60308;SDS011;50313;52.894;6.492;2022-08-30T13:28:55;0.40;;;0.20;;
60308;SDS011;50313;52.894;6.492;2022-08-30T13:31:23;0.25;;;0.20;;
60308;SDS011;50313;52.894;6.492;2022-08-30T13:33:50;0.55;;;0.30;;
60308;SDS011;50313;52.894;6.492;2022-08-30T13:36:18;1.40;;;0.30;;
60308;SDS011;50313;52.894;6.492;2022-08-30T13:38:45;1.02;;;0.52;;
60308;SDS011;50313;52.894;6.492;2022-08-30T13:41:12;0.73;;;0.38;;
60308;SDS011;50313;52.894;6.492;2022-08-30T13:43:38;19.30;;;1.23;;
60308;SDS011;50313;52.894;6.492;2022-08-30T13:46:04;0.30;;;0.25;;
60308;SDS011;50313;52.894;6.492;2022-08-30T13:48:31;0.45;;;0.32;;
60308;SDS011;50313;52.894;6.492;2022-08-30T13:50:57;0.88;;;0.38;;
60308;SDS011;50313;52.894;6.492;2022-08-30T13:53:23;4.50;;;0.30;;
60308;SDS011;50313;52.894;6.492;2022-08-30T13:55:48;0.30;;;0.15;;
60308;SDS011;50313;52.894;6.492;2022-08-30T13:58:15;0.40;;;0.25;;
60308;SDS011;50313;52.894;6.492;2022-08-30T14:00:42;0.63;;;0.50;;
60308;SDS011;50313;52.894;6.492;2022-08-30T14:03:10;0.52;;;0.20;;
60308;SDS011;50313;52.894;6.492;2022-08-30T14:05:39;3.60;;;0.30;;
60308;SDS011;50313;52.894;6.492;2022-08-30T14:08:07;3.75;;;0.25;;
60308;SDS011;50313;52.894;6.492;2022-08-30T14:10:34;0.20;;;0.20;;
60308;SDS011;50313;52.894;6.492;2022-08-30T14:13:00;1.17;;;0.40;;
60308;SDS011;50313;52.894;6.492;2022-08-30T14:15:26;0.85;;;0.40;;
60308;SDS011;50313;52.894;6.492;2022-08-30T14:17:52;0.35;;;0.35;;
60308;SDS011;50313;52.894;6.492;2022-08-30T14:20:18;0.85;;;0.40;;
60308;SDS011;50313;52.894;6.492;2022-08-30T14:22:44;1.50;;;0.50;;
60308;SDS011;50313;52.894;6.492;2022-08-30T14:25:10;0.63;;;0.40;;
60308;SDS011;50313;52.894;6.492;2022-08-30T14:27:36;1.00;;;0.35;;
60308;SDS011;50313;52.894;6.492;2022-08-30T14:30:03;0.10;;;0.10;;
60308;SDS011;50313;52.894;6.492;2022-08-30T14:32:29;0.22;;;0.20;;
60308;SDS011;50313;52.894;6.492;2022-08-30T14:34:55;0.82;;;0.20;;
60308;SDS011;50313;52.894;6.492;2022-08-30T14:37:20;0.28;;;0.20;;
60308;SDS011;50313;52.894;6.492;2022-08-30T14:39:46;1.10;;;0.30;;
60308;SDS011;50313;52.894;6.492;2022-08-30T14:42:12;8.07;;;0.40;;
60308;SDS011;50313;52.894;6.492;2022-08-30T14:44:38;0.32;;;0.20;;
60308;SDS011;50313;52.894;6.492;2022-08-30T14:47:03;2.15;;;0.43;;
60308;SDS011;50313;52.894;6.492;2022-08-30T14:49:30;0.20;;;0.20;;
60308;SDS011;50313;52.894;6.492;2022-08-30T14:51:55;0.35;;;0.25;;
60308;SDS011;50313;52.894;6.492;2022-08-30T14:54:28;0.20;;;0.20;;
60308;SDS011;50313;52.894;6.492;2022-08-30T14:56:55;0.88;;;0.30;;
60308;SDS011;50313;52.894;6.492;2022-08-30T14:59:22;0.63;;;0.30;;
60308;SDS011;50313;52.894;6.492;2022-08-30T15:01:48;0.20;;;0.20;;
60308;SDS011;50313;52.894;6.492;2022-08-30T15:04:14;0.57;;;0.25;;
60308;SDS011;50313;52.894;6.492;2022-08-30T15:06:42;0.43;;;0.40;;
60308;SDS011;50313;52.894;6.492;2022-08-30T15:09:11;1.67;;;0.35;;
60308;SDS011;50313;52.894;6.492;2022-08-30T15:11:39;0.10;;;0.10;;
60308;SDS011;50313;52.894;6.492;2022-08-30T15:14:07;1.02;;;0.40;;
60308;SDS011;50313;52.894;6.492;2022-08-30T15:16:33;0.70;;;0.40;;
60308;SDS011;50313;52.894;6.492;2022-08-30T15:19:01;0.20;;;0.20;;
60308;SDS011;50313;52.894;6.492;2022-08-30T15:21:30;0.50;;;0.30;;
60308;SDS011;50313;52.894;6.492;2022-08-30T15:24:07;0.50;;;0.30;;
60308;SDS011;50313;52.894;6.492;2022-08-30T15:26:36;1.30;;;0.60;;
60308;SDS011;50313;52.894;6.492;2022-08-30T15:29:08;0.75;;;0.30;;
60308;SDS011;50313;52.894;6.492;2022-08-30T15:31:35;0.10;;;0.10;;
60308;SDS011;50313;52.894;6.492;2022-08-30T15:34:00;0.85;;;0.30;;
60308;SDS011;50313;52.894;6.492;2022-08-30T15:36:27;0.57;;;0.20;;
60308;SDS011;50313;52.894;6.492;2022-08-30T15:38:54;0.22;;;0.22;;
60308;SDS011;50313;52.894;6.492;2022-08-30T15:41:20;0.40;;;0.30;;
60308;SDS011;50313;52.894;6.492;2022-08-30T15:43:47;0.65;;;0.30;;
60308;SDS011;50313;52.894;6.492;2022-08-30T15:48:42;1.55;;;0.45;;
60308;SDS011;50313;52.894;6.492;2022-08-30T15:51:09;0.47;;;0.28;;
60308;SDS011;50313;52.894;6.492;2022-08-30T15:53:35;0.32;;;0.20;;
60308;SDS011;50313;52.894;6.492;2022-08-30T15:56:01;0.25;;;0.20;;
60308;SDS011;50313;52.894;6.492;2022-08-30T15:58:27;0.52;;;0.40;;
60308;SDS011;50313;52.894;6.492;2022-08-30T16:00:53;1.17;;;0.40;;
60308;SDS011;50313;52.894;6.492;2022-08-30T16:03:19;1.17;;;0.20;;
60308;SDS011;50313;52.894;6.492;2022-08-30T16:05:44;0.80;;;0.32;;
60308;SDS011;50313;52.894;6.492;2022-08-30T16:08:10;1.70;;;0.40;;
60308;SDS011;50313;52.894;6.492;2022-08-30T16:10:38;0.60;;;0.30;;
60308;SDS011;50313;52.894;6.492;2022-08-30T16:13:04;1.60;;;0.50;;
60308;SDS011;50313;52.894;6.492;2022-08-30T16:15:30;1.48;;;0.43;;
60308;SDS011;50313;52.894;6.492;2022-08-30T16:17:55;2.40;;;0.30;;
60308;SDS011;50313;52.894;6.492;2022-08-30T16:20:21;2.08;;;0.40;;
60308;SDS011;50313;52.894;6.492;2022-08-30T16:22:47;0.35;;;0.20;;
60308;SDS011;50313;52.894;6.492;2022-08-30T16:25:13;0.77;;;0.30;;
60308;SDS011;50313;52.894;6.492;2022-08-30T16:27:39;1.23;;;0.28;;
60308;SDS011;50313;52.894;6.492;2022-08-30T16:30:10;0.20;;;0.20;;
60308;SDS011;50313;52.894;6.492;2022-08-30T16:32:36;0.40;;;0.30;;
60308;SDS011;50313;52.894;6.492;2022-08-30T16:35:03;4.55;;;0.45;;
60308;SDS011;50313;52.894;6.492;2022-08-30T16:37:30;2.85;;;0.40;;
60308;SDS011;50313;52.894;6.492;2022-08-30T16:39:56;3.92;;;0.52;;
60308;SDS011;50313;52.894;6.492;2022-08-30T16:42:21;0.45;;;0.30;;